Flight Track Log - Related Links

Times and Time Zones

All times are in EDT time to prevent confusion due to time zone crossing. See the IBE3329 flight status page for this flight to view local times or setup timezone preferences in your user account.

Time Position Orientation Groundspeed Altitude Reporting Facility
EDT Latitude Longitude Course Direction KTS MPH feet Rate Location/Type
Mon 08:00:00 PM 24.1619 -13.1956 23° Northeast  Level Estimated
Mon 08:01:00 PM 24.2720 -13.1417 24° Northeast  Level Estimated
Mon 08:02:00 PM 24.3822 -13.0878 24° Northeast  Level Estimated
Mon 08:03:00 PM 24.4923 -13.0338 24° Northeast  Level Estimated
Mon 08:04:00 PM 24.6025 -12.9796 24° Northeast  Level Estimated
Mon 08:05:00 PM 24.7126 -12.9254 24° Northeast  Level Estimated
Mon 08:06:00 PM 24.8226 -12.8711 24° Northeast  Level Estimated
Mon 08:07:00 PM 24.9327 -12.8167 24° Northeast  Level Estimated
Mon 08:08:00 PM 25.0427 -12.7622 24° Northeast  Level Estimated
Mon 08:09:00 PM 25.1528 -12.7076 24° Northeast  Level Estimated
Mon 08:10:00 PM 25.2628 -12.6529 24° Northeast  Level Estimated
Mon 08:11:00 PM 25.3727 -12.5981 24° Northeast  Level Estimated
Mon 08:12:00 PM 25.4827 -12.5432 24° Northeast  Level Estimated
Mon 08:13:00 PM 25.5926 -12.4882 24° Northeast  Level Estimated
Mon 08:14:00 PM 25.7026 -12.4331 24° Northeast  Level Estimated
Mon 08:15:00 PM 25.8125 -12.3779 24° Northeast  Level Estimated
Mon 08:16:00 PM 25.9223 -12.3226 24° Northeast  Level Estimated
Mon 08:17:00 PM 26.0322 -12.2672 24° Northeast  Level Estimated
Mon 08:18:00 PM 26.1420 -12.2117 24° Northeast  Level Estimated
Mon 08:19:00 PM 26.2519 -12.1560 24° Northeast  Level Estimated
Mon 08:20:00 PM 26.3617 -12.1003 24° Northeast  Level Estimated
Mon 08:21:00 PM 26.4714 -12.0445 24° Northeast  Level Estimated
Mon 08:22:00 PM 26.5812 -11.9886 25° Northeast  Level Estimated
Mon 08:23:00 PM 26.6909 -11.9325 25° Northeast  Level Estimated
Mon 08:24:00 PM 26.8006 -11.8764 25° Northeast  Level Estimated
Mon 08:25:00 PM 26.9103 -11.8201 25° Northeast  Level Estimated
Mon 08:26:00 PM 27.0200 -11.7637 25° Northeast  Level Estimated
Mon 08:27:00 PM 27.1296 -11.7073 25° Northeast  Level Estimated
Mon 08:28:00 PM 27.2392 -11.6507 25° Northeast  Level Estimated
Mon 08:29:00 PM 27.3488 -11.5940 25° Northeast  Level Estimated
Mon 08:30:00 PM 27.4584 -11.5372 25° Northeast  Level Estimated
Mon 08:31:00 PM 27.5679 -11.4802 25° Northeast  Level Estimated
Mon 08:32:00 PM 27.6775 -11.4232 25° Northeast  Level Estimated
Mon 08:33:00 PM 27.7869 -11.3660 25° Northeast  Level Estimated
Mon 08:34:00 PM 27.8964 -11.3088 25° Northeast  Level Estimated
Mon 08:35:00 PM 28.0059 -11.2514 25° Northeast  Level Estimated
Mon 08:36:00 PM 28.1153 -11.1939 25° Northeast  Level Estimated
Mon 08:37:00 PM 28.2247 -11.1362 25° Northeast  Level Estimated
Mon 08:38:00 PM 28.3341 -11.0785 25° Northeast  Level Estimated
Mon 08:39:00 PM 28.4435 -11.0206 25° Northeast  Level Estimated
Mon 08:40:00 PM 28.5528 -10.9627 25° Northeast  Level Estimated
Mon 08:41:00 PM 28.6621 -10.9046 25° Northeast  Level Estimated
Mon 08:42:00 PM 28.7714 -10.8463 25° Northeast  Level Estimated
Mon 08:43:00 PM 28.8806 -10.7880 25° Northeast  Level Estimated
Mon 08:44:00 PM 28.9899 -10.7296 25° Northeast  Level Estimated
Mon 08:45:00 PM 29.0991 -10.6710 25° Northeast  Level Estimated
Mon 08:46:00 PM 29.2083 -10.6123 25° Northeast  Level Estimated
Mon 08:47:00 PM 29.3174 -10.5534 25° Northeast  Level Estimated
Mon 08:48:00 PM 29.4265 -10.4944 25° Northeast  Level Estimated
Mon 08:49:00 PM 29.5357 -10.4354 25° Northeast  Level Estimated
Mon 08:50:00 PM 29.6447 -10.3761 25° Northeast  Level Estimated
Mon 08:51:00 PM 29.7538 -10.3168 25° Northeast  Level Estimated
Mon 08:52:00 PM 29.8628 -10.2573 25° Northeast  Level Estimated
Mon 08:53:00 PM 29.9718 -10.1977 25° Northeast  Level Estimated
Mon 08:54:00 PM 30.0808 -10.1380 25° Northeast  Level Estimated
Mon 08:55:00 PM 30.1897 -10.0781 25° Northeast  Level Estimated
Mon 08:56:00 PM 30.2987 -10.0181 25° Northeast  Level Estimated
Mon 08:57:00 PM 30.4076 -9.9580 25° Northeast  Level Estimated
Mon 08:58:00 PM 30.5164 -9.8977 25° Northeast  Level Estimated
Mon 08:59:00 PM 30.6252 -9.8373 26° Northeast  Level Estimated
Mon 09:00:00 PM 30.7341 -9.7767 26° Northeast  Level Estimated
Mon 09:01:00 PM 30.8428 -9.7161 26° Northeast  Level Estimated
Mon 09:02:00 PM 30.9516 -9.6553 26° Northeast  Level Estimated
Mon 09:03:00 PM 31.0603 -9.5943 26° Northeast  Level Estimated
Mon 09:04:00 PM 31.1690 -9.5332 26° Northeast  Level Estimated
Mon 09:05:00 PM 31.2777 -9.4720 26° Northeast  Level Estimated
Mon 09:06:00 PM 31.3863 -9.4106 26° Northeast  Level Estimated
Mon 09:07:00 PM 31.4949 -9.3491 26° Northeast  Level Estimated
Mon 09:08:00 PM 31.6035 -9.2874 26° Northeast  Level Estimated
Mon 09:09:00 PM 31.7120 -9.2256 26° Northeast  Level Estimated
Mon 09:10:00 PM 31.8206 -9.1637 26° Northeast  Level Estimated
Mon 09:11:00 PM 31.9291 -9.1016 26° Northeast  Level Estimated
Mon 09:12:00 PM 32.0375 -9.0394 26° Northeast  Level Estimated
Mon 09:13:00 PM 32.1460 -8.9770 26° Northeast  Level Estimated
Mon 09:14:00 PM 32.2543 -8.9144 26° Northeast  Level Estimated
Mon 09:15:00 PM 32.3627 -8.8517 26° Northeast  Level Estimated
Mon 09:16:00 PM 32.4711 -8.7889 26° Northeast  Level Estimated
Mon 09:17:00 PM 32.5793 -8.7259 26° Northeast  Level Estimated
Mon 09:18:00 PM 32.6876 -8.6628 26° Northeast  Level Estimated
Mon 09:19:00 PM 32.7959 -8.5995 26° Northeast  Level Estimated
Mon 09:20:00 PM 32.9041 -8.5360 26° Northeast  Level Estimated
Mon 09:21:00 PM 33.0122 -8.4724 26° Northeast  Level Estimated
Mon 09:22:00 PM 33.1204 -8.4087 26° Northeast  Level Estimated
Mon 09:23:00 PM 33.2285 -8.3448 26° Northeast  Level Estimated
Mon 09:24:00 PM 33.3366 -8.2807 26° Northeast  Level Estimated
Mon 09:25:00 PM 33.4446 -8.2164 26° Northeast  Level Estimated
Mon 09:26:00 PM 33.5526 -8.1521 26° Northeast  Level Estimated
Mon 09:27:00 PM 33.6606 -8.0875 26° Northeast  Level Estimated
Mon 09:28:00 PM 33.7686 -8.0228 26° Northeast  Level Estimated
Mon 09:29:00 PM 33.8765 -7.9579 27° Northeast  Level Estimated
Mon 09:30:00 PM 33.9843 -7.8928 27° Northeast  Level Estimated
Mon 09:31:00 PM 34.0922 -7.8276 27° Northeast  Level Estimated
Mon 09:32:00 PM 34.2000 -7.7623 27° Northeast  Level Estimated
Mon 09:33:00 PM 34.3078 -7.6967 27° Northeast  Level Estimated
Mon 09:34:00 PM 34.4155 -7.6310 27° Northeast  Level Estimated
Mon 09:35:00 PM 34.5232 -7.5651 27° Northeast  Level Estimated
Mon 09:36:00 PM 34.6309 -7.4991 27° Northeast  Level Estimated
Mon 09:37:00 PM 34.7385 -7.4329 27° Northeast  Level Estimated
Mon 09:37:12 PM 34.4820 -7.3830 27° Northeast 426 490 36,000  Level FlightAware ADS-B
Mon 09:38:00 PM 34.8461 -7.3665 27° Northeast  Level Estimated
Mon 09:38:07 PM 34.5770 -7.3080 33° Northeast 426 490 36,000  Level FlightAware ADS-B
Mon 09:38:47 PM 34.6450 -7.2550 33° Northeast 427 491 36,000  Level FlightAware ADS-B
Mon 09:39:32 PM 34.7200 -7.1960 33° Northeast 427 491 36,000  Level FlightAware ADS-B
Mon 09:40:12 PM 34.7840 -7.1460 33° Northeast 424 488 36,000  Level FlightAware ADS-B
Mon 09:40:52 PM 34.8550 -7.0900 33° Northeast 423 487 36,000  Level FlightAware ADS-B
Mon 09:41:37 PM 34.9300 -7.0320 32° Northeast 422 486 36,000  Level FlightAware ADS-B
Mon 09:42:17 PM 34.9970 -6.9790 33° Northeast 421 484 36,000  Level FlightAware ADS-B
Mon 09:43:02 PM 35.0730 -6.9180 33° Northeast 421 484 36,000  Level FlightAware ADS-B
Mon 09:43:42 PM 35.1380 -6.8670 33° Northeast 422 486 36,000  Level FlightAware ADS-B
Mon 09:44:22 PM 35.2040 -6.8140 33° Northeast 423 487 36,000  Level FlightAware ADS-B
Mon 09:45:07 PM 35.2790 -6.7540 33° Northeast 422 486 36,000  Level FlightAware ADS-B
Mon 09:45:47 PM 35.3470 -6.7010 32° Northeast 423 487 36,000  Level FlightAware ADS-B
Mon 09:46:32 PM 35.4220 -6.6410 33° Northeast 423 487 36,000  Level FlightAware ADS-B
Mon 09:47:12 PM 35.4880 -6.5880 33° Northeast 423 487 36,000 71 Level FlightAware ADS-B
Mon 09:47:57 PM 35.5630 -6.5280 33° Northeast 426 490 36,100 71 Climbing FlightAware ADS-B
Mon 09:48:37 PM 35.6290 -6.4750 33° Northeast 422 486 36,100 -71 Level FlightAware ADS-B
Mon 09:49:22 PM 35.7020 -6.4160 33° Northeast 409 471 36,000 -71 Descending FlightAware ADS-B
Mon 09:50:02 PM 35.7670 -6.3640 33° Northeast 405 466 36,000  Level FlightAware ADS-B
Mon 09:50:42 PM 35.8300 -6.3130 33° Northeast 404 465 36,000  Level FlightAware ADS-B
Mon 09:51:27 PM 35.9020 -6.2550 33° Northeast 408 470 36,000  Level FlightAware ADS-B
Mon 09:52:07 PM 35.9730 -6.2230 20° North 415 478 36,000  Level FlightAware ADS-B
Mon 09:52:52 PM 36.0590 -6.1940 15° North 417 480 36,000  Level FlightAware ADS-B
Mon 09:53:32 PM 36.1320 -6.1690 15° North 420 483 36,000  Level FlightAware ADS-B
Mon 09:54:12 PM 36.2080 -6.1430 15° North 414 476 36,000 71 Level FlightAware ADS-B
Mon 09:54:57 PM 36.2920 -6.1140 16° North 416 479 36,100 71 Climbing FlightAware ADS-B
Mon 09:55:37 PM 36.3680 -6.0880 15° North 416 479 36,100  Level FlightAware ADS-B
Mon 09:56:22 PM 36.4540 -6.0590 15° North 416 479 36,100 -71 Level FlightAware ADS-B
Mon 09:57:02 PM 36.5310 -6.0320 16° North 415 478 36,000 -75 Descending FlightAware ADS-B
Mon 09:57:42 PM 36.6050 -6.0070 15° North 415 478 36,000  Level FlightAware ADS-B
Mon 09:58:27 PM 36.6900 -5.9770 16° North 415 478 36,000  Level FlightAware ADS-B
Mon 09:59:07 PM 36.7650 -5.9510 16° North 414 476 36,000  Level FlightAware ADS-B
Mon 09:59:52 PM 36.8500 -5.9220 15° North 415 478 36,000  Level FlightAware ADS-B
Mon 10:00:32 PM 36.9260 -5.8950 16° North 415 478 36,000  Level FlightAware ADS-B
Mon 10:01:12 PM 37.0010 -5.8690 15° North 415 478 36,000  Level FlightAware ADS-B
Mon 10:01:57 PM 37.0860 -5.8390 16° North 415 478 36,000  Level FlightAware ADS-B
Mon 10:02:37 PM 37.1620 -5.8120 16° North 415 478 36,000  Level FlightAware ADS-B
Mon 10:03:22 PM 37.2470 -5.7830 15° North 416 479 36,000  Level FlightAware ADS-B
Mon 10:04:02 PM 37.3230 -5.7560 16° North 416 479 36,000  Level FlightAware ADS-B
Mon 10:04:42 PM 37.3980 -5.7290 16° North 416 479 36,000  Level FlightAware ADS-B
Mon 10:05:27 PM 37.4840 -5.6990 15° North 415 478 36,000  Level FlightAware ADS-B
Mon 10:06:07 PM 37.5590 -5.6730 15° North 415 478 36,000  Level FlightAware ADS-B
Mon 10:06:52 PM 37.6430 -5.6420 16° North 422 486 36,000  Level FlightAware ADS-B
Mon 10:07:32 PM 37.7190 -5.6160 15° North 420 483 36,000  Level FlightAware ADS-B
Mon 10:08:12 PM 37.7930 -5.5890 16° North 419 482 36,000  Level FlightAware ADS-B
Mon 10:08:57 PM 37.8770 -5.5590 16° North 418 481 36,000  Level FlightAware ADS-B
Mon 10:09:37 PM 37.9520 -5.5320 16° North 417 480 36,000  Level FlightAware ADS-B
Mon 10:10:22 PM 38.0360 -5.5020 16° North 418 481 36,000  Level FlightAware ADS-B
Mon 10:11:02 PM 38.1130 -5.4740 16° North 419 482 36,000  Level FlightAware ADS-B
Mon 10:11:42 PM 38.1850 -5.4480 16° North 420 483 36,000  Level FlightAware ADS-B
Mon 10:12:27 PM 38.2710 -5.4170 16° North 420 483 36,000  Level FlightAware ADS-B
Mon 10:13:07 PM 38.3440 -5.3900 16° North 421 484 36,000  Level FlightAware ADS-B
Mon 10:13:52 PM 38.4290 -5.3600 15° North 422 486 36,000  Level FlightAware ADS-B
Mon 10:14:27 PM 38.4890 -5.3370 17° North 422 486 36,000  Level FlightAware ADS-B
Mon 10:15:12 PM 38.5850 -5.3030 15° North 424 488 36,000  Level FlightAware ADS-B
Mon 10:15:57 PM 38.6690 -5.2720 16° North 425 489 36,000  Level FlightAware ADS-B
Mon 10:16:37 PM 38.7450 -5.2440 16° North 426 490 36,000 -71 Level FlightAware ADS-B
Mon 10:17:22 PM 38.8280 -5.2130 16° North 422 486 35,900 -424 Descending FlightAware ADS-B
Mon 10:18:02 PM 38.9010 -5.1730 23° Northeast 425 489 35,400 -900 Descending FlightAware ADS-B
Mon 10:18:42 PM 38.9690 -5.1190 32° Northeast 429 494 34,700 -1,271 Descending FlightAware ADS-B
Mon 10:19:27 PM 39.0330 -5.0480 41° Northeast 435 501 33,600 -2,047 Descending FlightAware ADS-B
Mon 10:20:07 PM 39.0890 -4.9620 50° Northeast 437 503 31,800 -2,400 Descending FlightAware ADS-B
Mon 10:20:52 PM 39.1370 -4.8650 57° Northeast 438 504 30,200 -2,118 Descending FlightAware ADS-B
Mon 10:21:32 PM 39.1790 -4.7770 58° Northeast 432 497 28,800 -2,175 Descending FlightAware ADS-B
Mon 10:22:12 PM 39.2290 -4.7000 50° Northeast 417 480 27,300 -2,259 Descending FlightAware ADS-B
Mon 10:22:57 PM 39.2910 -4.6200 45° Northeast 410 472 25,600 -2,965 Descending FlightAware ADS-B
Mon 10:23:37 PM 39.3460 -4.5490 45° Northeast 426 490 23,100 -2,753 Descending FlightAware ADS-B
Mon 10:24:22 PM 39.4070 -4.4700 45° Northeast 410 472 21,700 -1,482 Descending FlightAware ADS-B
Mon 10:25:02 PM 39.4580 -4.4020 46° Northeast 391 450 21,000 -975 Descending FlightAware ADS-B
Mon 10:25:42 PM 39.5100 -4.3350 45° Northeast 382 440 20,400 -988 Descending FlightAware ADS-B
Mon 10:26:27 PM 39.5670 -4.2600 45° Northeast 383 441 19,600 -1,271 Descending FlightAware ADS-B
Mon 10:27:07 PM 39.6170 -4.1950 45° Northeast 379 436 18,600 -1,765 Descending FlightAware ADS-B
Mon 10:27:52 PM 39.6700 -4.1240 46° Northeast 373 429 17,100 -1,976 Descending FlightAware ADS-B
Mon 10:28:32 PM 39.7200 -4.0590 45° Northeast 365 420 15,800 -1,650 Descending FlightAware ADS-B
Mon 10:29:12 PM 39.7650 -4.0000 45° Northeast 355 409 14,900 -1,341 Descending FlightAware ADS-B
Mon 10:29:57 PM 39.8160 -3.9320 46° Northeast 340 391 13,900 -1,341 Descending FlightAware ADS-B
Mon 10:30:37 PM 39.8610 -3.8730 45° Northeast 326 375 13,000 -1,425 Descending FlightAware ADS-B
Mon 10:31:17 PM 39.9020 -3.8180 46° Northeast 319 367 12,000 -1,482 Descending FlightAware ADS-B
Mon 10:32:02 PM 39.9470 -3.7580 46° Northeast 316 364 10,900 -1,624 Descending FlightAware ADS-B
Mon 10:32:42 PM 39.9880 -3.7040 45° Northeast 313 360 9,700 -1,714 Descending FlightAware ADS-B
Mon 10:33:12 PM 40.0180 -3.6640 46° Northeast 312 359 8,900 -1,636 Descending FlightAware ADS-B
Mon 10:33:37 PM 40.0440 -3.6280 47° Northeast 309 356 8,200 -1,527 Descending FlightAware ADS-B
Mon 10:34:07 PM 40.0740 -3.5880 46° Northeast 302 348 7,500 -1,400 Descending FlightAware ADS-B
Mon 10:34:37 PM 40.1030 -3.5500 45° Northeast 297 342 6,800 -1,418 Descending FlightAware ADS-B
Mon 10:35:02 PM 40.1260 -3.5190 46° Northeast 294 338 6,200 -1,527 Descending FlightAware ADS-B
Mon 10:35:32 PM 40.1550 -3.4800 46° Northeast 292 336 5,400 -1,309 Descending FlightAware ADS-B
Mon 10:35:57 PM 40.1790 -3.4480 46° Northeast 276 318 5,000 -655 Descending FlightAware ADS-B
Mon 10:36:27 PM 40.2050 -3.4130 46° Northeast 258 297 4,800 -200 Descending FlightAware ADS-B
Mon 10:36:57 PM 40.2300 -3.3790 46° Northeast 251 289 4,800  Level FlightAware ADS-B
Mon 10:37:22 PM 40.2490 -3.3540 45° Northeast 249 287 4,800  Level FlightAware ADS-B
Mon 10:37:37 PM 40.2630 -3.3420 33° Northeast 249 287 4,800  Level FlightAware ADS-B
Mon 10:37:52 PM 40.2800 -3.3430 357° North 244 281 4,800  Level FlightAware ADS-B
Mon 10:38:02 PM 40.2890 -3.3500 329° Northwest 238 274 4,800 -150 Level FlightAware ADS-B
Mon 10:38:32 PM 40.3160 -3.3770 323° Northwest 225 259 4,700  Descending FlightAware ADS-B
Mon 10:39:02 PM 40.3390 -3.4000 323° Northwest 213 245 4,800 -218 Climbing FlightAware ADS-B
Mon 10:39:27 PM 40.3590 -3.4200 323° Northwest 198 228 4,500 -873 Descending FlightAware ADS-B
Mon 10:39:57 PM 40.3800 -3.4410 323° Northwest 189 217 4,000 -982 Descending FlightAware ADS-B
Mon 10:40:22 PM 40.3970 -3.4580 323° Northwest 174 200 3,600 -982 Descending FlightAware ADS-B
Mon 10:40:52 PM 40.4150 -3.4770 321° Northwest 158 182 3,100 -900 Descending FlightAware ADS-B
Mon 10:41:22 PM 40.4320 -3.4940 323° Northwest 152 175 2,700 -764 Descending FlightAware ADS-B
Mon 10:41:47 PM 40.4450 -3.5080 321° Northwest 151 174 2,400 -764 Descending FlightAware ADS-B
Mon 10:42:17 PM 40.4620 -3.5250 323° Northwest 151 174 2,000 -800 Descending FlightAware ADS-B
Mon 10:42:32 PM 40.4710 -3.5340 323° Northwest 150 173 1,800 -800 Descending FlightAware ADS-B

Login

Don't have an account? Register now (free) for customized features, flight alerts, and more!